Oldhams, VA (22529)

2:11 PM EST on November 26, 2014 (GMT -0500)
Settlers Landing | Change Station
CLOSE
Current Station
Personal Weather Station
Location: Warsaw, VA
Elevation: 43 ft
Nearby Weather Stations

Elev 43 ft 37.93 °N, 76.71 °W | Updated 1 minute ago

Rain
Rain
39.7 °F
Feels Like 40 °F
N
0.0
Wind Variable Wind from SE

Today
High -- | Low -- °F
--% Chance of Precip.
Yesterday
High -- | Low -- °F
Precip. -- in
6:58 AM 4:48 PM
Waxing Crescent, 22% visible
Pressure 29.81 in
Visibility 10.0 miles
Clouds Overcast 700 ft
Windchill 40 °F
Dew Point 38 °F
Humidity 93%
Rainfall 1.20 in
Snow Depth Not available.
UV 1 out of 12
Pollen .10 out of 12
Air Quality Not available.
Flu Activity Not available.
METAR KXSA 261855Z AUTO 35009G18KT 10SM -RA OVC007 04/02 A2981 RMK AO2 T00400020

More Conditions Fewer Conditions

Pressure 29.81 in
Visibility 10.0 miles
Clouds Overcast 700 ft
Windchill 40 °F
Dew Point 38 °F
Humidity 93%
Rainfall 1.20 in
Snow Depth Not available.
UV 1 out of 12
Pollen .10 out of 12
Air Quality Not available.
Flu Activity Not available.
METAR KXSA 261855Z AUTO 35009G18KT 10SM -RA OVC007 04/02 A2981 RMK AO2 T00400020

More Conditions Fewer Conditions

10-Day Weather Forecast

Almanac

Astronomy

Nov. 26, 2014 Rise Set
Actual Time
Civil Twilight
Nautical Twilight
Astronomical Twilight
Moon
Length of Visible Light
Length of Day
Tomorrow will be .
, % of the Moon is Illuminated

Today's Extremes

State Highs State Lows

Community

WunderPhotos

Upload Photos

1,773,832 photos uploaded!

WunderBlogs® & News

Nearby

Air Quality

  Air Quality AQ Index Pollutant
Not available.

Snow Depth

Station Depth Elevation

Earthquake Activity

City Distance Mag. Time & Date
Minimum magnitude displayed is 2.5.

Coastal Water Temperatures

Place Temperature

Nearby Weather Stations